Flight Track Log - Related Links

Times and Time Zones

All times are in EDT time to prevent confusion due to time zone crossing. See the KAL1333 flight status page for this flight to view local times or setup timezone preferences in your user account.

Time Position Orientation Groundspeed Altitude Reporting Facility
EDT Latitude Longitude Course Direction KTS MPH feet Rate Location/Type
Sun 09:35:00 PM 37.4400 126.8278 166° South  Level Estimated
Sun 09:36:00 PM 37.3216 126.8648 166° South  Level Estimated
Sun 09:37:00 PM 37.2033 126.9017 166° South  Level Estimated
Sun 09:38:00 PM 37.0849 126.9385 166° South  Level Estimated
Sun 09:39:00 PM 36.9665 126.9752 166° South  Level Estimated
Sun 09:40:00 PM 36.8482 127.0118 166° South  Level Estimated
Sun 09:41:00 PM 36.7298 127.0483 166° South  Level Estimated
Sun 09:42:00 PM 36.6114 127.0846 166° South  Level Estimated
Sun 09:43:00 PM 36.4929 127.1209 166° South  Level Estimated
Sun 09:44:00 PM 36.3745 127.1570 166° South  Level Estimated
Sun 09:45:00 PM 36.2561 127.1930 166° South  Level Estimated
Sun 09:46:00 PM 36.1782 127.2167 166° South  Level Estimated
Sun 09:47:00 PM 36.1004 127.2402 166° South  Level Estimated
Sun 09:48:00 PM 36.0225 127.2637 166° South  Level Estimated
Sun 09:49:00 PM 35.9447 127.2872 166° South  Level Estimated
Sun 09:50:00 PM 35.8668 127.3106 166° South  Level Estimated
Sun 09:51:00 PM 35.7890 127.3340 166° South  Level Estimated
Sun 09:52:00 PM 35.7111 127.3574 166° South  Level Estimated
Sun 09:53:00 PM 35.6332 127.3807 166° South  Level Estimated
Sun 09:54:00 PM 35.5553 127.4039 166° South  Level Estimated
Sun 09:55:00 PM 35.4775 127.4271 166° South  Level Estimated
Sun 09:56:00 PM 35.3996 127.4502 166° South  Level Estimated
Sun 09:57:00 PM 35.3217 127.4734 166° South  Level Estimated
Sun 09:58:00 PM 35.2438 127.4964 166° South  Level Estimated
Sun 09:59:00 PM 35.1659 127.5194 166° South  Level Estimated
Sun 10:00:00 PM 35.0880 127.5424 166° South  Level Estimated
Sun 10:01:00 PM 35.0101 127.5654 166° South  Level Estimated
Sun 10:02:00 PM 34.9322 127.5882 166° South  Level Estimated
Sun 10:03:00 PM 34.8543 127.6111 166° South  Level Estimated
Sun 10:04:00 PM 34.8398 127.6153 166° South  Level Estimated
Sun 10:05:00 PM 34.8398 127.6153 180° South  Level Estimated
Sun 10:06:00 PM 34.8398 127.6153 180° South  Level Estimated
Sun 10:07:00 PM 34.8398 127.6153 180° South  Level Estimated
Sun 10:08:00 PM 34.8398 127.6153 180° South  Level Estimated
Sun 10:09:00 PM 34.8398 127.6153 180° South  Level Estimated
Sun 10:10:00 PM 34.8398 127.6153 180° South  Level Estimated

Login

Don't have an account? Register now (free) for customized features, flight alerts, and more!